sensor_id;sensor_type;location;lat;lon;timestamp;P1;durP1;ratioP1;P2;durP2;ratioP2
34876;SDS011;21086;44.780;17.194;2022-11-20T00:03:43;2.67;;;1.83;;
34876;SDS011;21086;44.780;17.194;2022-11-20T00:06:12;3.80;;;2.30;;
34876;SDS011;21086;44.780;17.194;2022-11-20T00:08:45;2.80;;;2.10;;
34876;SDS011;21086;44.780;17.194;2022-11-20T00:11:14;4.03;;;2.80;;
34876;SDS011;21086;44.780;17.194;2022-11-20T00:13:43;2.55;;;2.05;;
34876;SDS011;21086;44.780;17.194;2022-11-20T00:16:12;3.00;;;2.17;;
34876;SDS011;21086;44.780;17.194;2022-11-20T00:18:40;3.45;;;2.50;;
34876;SDS011;21086;44.780;17.194;2022-11-20T00:21:42;3.97;;;2.17;;
34876;SDS011;21086;44.780;17.194;2022-11-20T00:24:01;2.95;;;1.98;;
34876;SDS011;21086;44.780;17.194;2022-11-20T00:26:28;4.40;;;2.88;;
34876;SDS011;21086;44.780;17.194;2022-11-20T00:28:59;2.70;;;2.08;;
34876;SDS011;21086;44.780;17.194;2022-11-20T00:31:27;2.42;;;1.80;;
34876;SDS011;21086;44.780;17.194;2022-11-20T00:33:55;4.18;;;2.40;;
34876;SDS011;21086;44.780;17.194;2022-11-20T00:36:22;2.47;;;1.70;;
34876;SDS011;21086;44.780;17.194;2022-11-20T00:38:51;2.83;;;1.98;;
34876;SDS011;21086;44.780;17.194;2022-11-20T00:41:22;3.42;;;2.50;;
34876;SDS011;21086;44.780;17.194;2022-11-20T00:43:53;3.72;;;2.00;;
34876;SDS011;21086;44.780;17.194;2022-11-20T00:46:23;3.80;;;1.65;;
34876;SDS011;21086;44.780;17.194;2022-11-20T00:48:51;3.20;;;2.30;;
34876;SDS011;21086;44.780;17.194;2022-11-20T00:51:19;2.40;;;1.80;;
34876;SDS011;21086;44.780;17.194;2022-11-20T00:53:48;3.30;;;2.00;;
34876;SDS011;21086;44.780;17.194;2022-11-20T00:56:16;2.97;;;2.38;;
34876;SDS011;21086;44.780;17.194;2022-11-20T00:58:45;2.63;;;1.90;;
34876;SDS011;21086;44.780;17.194;2022-11-20T01:01:14;1.73;;;1.20;;
34876;SDS011;21086;44.780;17.194;2022-11-20T01:03:44;3.38;;;2.00;;
34876;SDS011;21086;44.780;17.194;2022-11-20T01:06:15;2.63;;;1.60;;
34876;SDS011;21086;44.780;17.194;2022-11-20T01:08:43;2.28;;;1.65;;
34876;SDS011;21086;44.780;17.194;2022-11-20T01:11:13;2.50;;;2.03;;
34876;SDS011;21086;44.780;17.194;2022-11-20T01:13:42;2.78;;;2.00;;
34876;SDS011;21086;44.780;17.194;2022-11-20T01:16:11;2.63;;;1.85;;
34876;SDS011;21086;44.780;17.194;2022-11-20T01:18:41;3.03;;;1.90;;
34876;SDS011;21086;44.780;17.194;2022-11-20T01:21:19;3.20;;;1.90;;
34876;SDS011;21086;44.780;17.194;2022-11-20T01:23:51;2.88;;;1.90;;
34876;SDS011;21086;44.780;17.194;2022-11-20T01:26:20;2.72;;;2.17;;
34876;SDS011;21086;44.780;17.194;2022-11-20T01:28:49;3.15;;;2.30;;
34876;SDS011;21086;44.780;17.194;2022-11-20T01:31:18;3.58;;;2.30;;
34876;SDS011;21086;44.780;17.194;2022-11-20T01:33:51;3.97;;;2.58;;
34876;SDS011;21086;44.780;17.194;2022-11-20T01:36:20;4.05;;;2.72;;
34876;SDS011;21086;44.780;17.194;2022-11-20T01:38:52;2.97;;;2.28;;
34876;SDS011;21086;44.780;17.194;2022-11-20T01:41:20;4.88;;;2.15;;
34876;SDS011;21086;44.780;17.194;2022-11-20T01:44:07;4.35;;;1.90;;
34876;SDS011;21086;44.780;17.194;2022-11-20T01:46:37;2.85;;;1.88;;
34876;SDS011;21086;44.780;17.194;2022-11-20T01:51:52;2.53;;;1.38;;
34876;SDS011;21086;44.780;17.194;2022-11-20T01:54:32;1.77;;;1.20;;
34876;SDS011;21086;44.780;17.194;2022-11-20T01:57:04;1.95;;;1.05;;
34876;SDS011;21086;44.780;17.194;2022-11-20T01:59:33;1.80;;;1.20;;
34876;SDS011;21086;44.780;17.194;2022-11-20T02:02:03;2.35;;;1.73;;
34876;SDS011;21086;44.780;17.194;2022-11-20T02:04:30;2.58;;;1.65;;
34876;SDS011;21086;44.780;17.194;2022-11-20T02:07:00;2.80;;;1.83;;
34876;SDS011;21086;44.780;17.194;2022-11-20T02:09:31;3.33;;;1.92;;
34876;SDS011;21086;44.780;17.194;2022-11-20T02:11:58;2.50;;;1.70;;
34876;SDS011;21086;44.780;17.194;2022-11-20T02:14:26;2.85;;;2.08;;
34876;SDS011;21086;44.780;17.194;2022-11-20T02:16:54;3.67;;;1.70;;
34876;SDS011;21086;44.780;17.194;2022-11-20T02:19:22;2.75;;;1.70;;
34876;SDS011;21086;44.780;17.194;2022-11-20T02:22:07;3.00;;;1.67;;
34876;SDS011;21086;44.780;17.194;2022-11-20T02:24:50;2.00;;;1.27;;
34876;SDS011;21086;44.780;17.194;2022-11-20T02:27:17;3.67;;;1.50;;
34876;SDS011;21086;44.780;17.194;2022-11-20T02:34:55;2.90;;;1.10;;
34876;SDS011;21086;44.780;17.194;2022-11-20T02:37:23;5.22;;;1.17;;
34876;SDS011;21086;44.780;17.194;2022-11-20T02:39:57;3.80;;;1.85;;
34876;SDS011;21086;44.780;17.194;2022-11-20T02:42:24;5.10;;;1.60;;
34876;SDS011;21086;44.780;17.194;2022-11-20T02:44:51;3.25;;;1.60;;
34876;SDS011;21086;44.780;17.194;2022-11-20T02:47:18;3.20;;;1.38;;
34876;SDS011;21086;44.780;17.194;2022-11-20T02:49:45;3.03;;;1.38;;
34876;SDS011;21086;44.780;17.194;2022-11-20T02:52:12;5.82;;;1.60;;
34876;SDS011;21086;44.780;17.194;2022-11-20T02:54:39;1.30;;;0.88;;
34876;SDS011;21086;44.780;17.194;2022-11-20T02:57:05;2.58;;;1.10;;
34876;SDS011;21086;44.780;17.194;2022-11-20T02:59:33;3.00;;;1.40;;
34876;SDS011;21086;44.780;17.194;2022-11-20T03:02:00;3.78;;;1.63;;
34876;SDS011;21086;44.780;17.194;2022-11-20T03:04:27;4.80;;;1.60;;
34876;SDS011;21086;44.780;17.194;2022-11-20T03:06:53;1.85;;;1.05;;
34876;SDS011;21086;44.780;17.194;2022-11-20T03:09:21;1.70;;;1.15;;
34876;SDS011;21086;44.780;17.194;2022-11-20T03:11:48;2.75;;;1.63;;
34876;SDS011;21086;44.780;17.194;2022-11-20T03:14:15;1.98;;;0.75;;
34876;SDS011;21086;44.780;17.194;2022-11-20T03:16:42;1.55;;;1.00;;
34876;SDS011;21086;44.780;17.194;2022-11-20T03:19:10;1.42;;;0.90;;
34876;SDS011;21086;44.780;17.194;2022-11-20T03:21:38;2.20;;;0.90;;
34876;SDS011;21086;44.780;17.194;2022-11-20T03:24:05;2.25;;;0.88;;
34876;SDS011;21086;44.780;17.194;2022-11-20T03:26:33;2.45;;;0.90;;
34876;SDS011;21086;44.780;17.194;2022-11-20T03:29:00;4.00;;;1.52;;
34876;SDS011;21086;44.780;17.194;2022-11-20T03:31:32;3.38;;;1.52;;
34876;SDS011;21086;44.780;17.194;2022-11-20T03:34:02;2.30;;;1.02;;
34876;SDS011;21086;44.780;17.194;2022-11-20T03:36:29;1.70;;;1.00;;
34876;SDS011;21086;44.780;17.194;2022-11-20T03:38:57;1.58;;;0.75;;
34876;SDS011;21086;44.780;17.194;2022-11-20T03:41:25;1.75;;;1.20;;
34876;SDS011;21086;44.780;17.194;2022-11-20T03:43:58;1.45;;;1.00;;
34876;SDS011;21086;44.780;17.194;2022-11-20T03:46:27;1.50;;;0.95;;
34876;SDS011;21086;44.780;17.194;2022-11-20T03:48:54;2.65;;;1.40;;
34876;SDS011;21086;44.780;17.194;2022-11-20T03:51:25;2.17;;;1.20;;
34876;SDS011;21086;44.780;17.194;2022-11-20T03:53:57;3.33;;;1.40;;
34876;SDS011;21086;44.780;17.194;2022-11-20T03:56:26;3.80;;;1.38;;
34876;SDS011;21086;44.780;17.194;2022-11-20T03:58:55;2.80;;;1.30;;
34876;SDS011;21086;44.780;17.194;2022-11-20T04:01:23;1.55;;;0.85;;
34876;SDS011;21086;44.780;17.194;2022-11-20T04:03:52;1.50;;;0.95;;
34876;SDS011;21086;44.780;17.194;2022-11-20T04:06:33;1.48;;;1.00;;
34876;SDS011;21086;44.780;17.194;2022-11-20T04:09:01;2.70;;;1.25;;
34876;SDS011;21086;44.780;17.194;2022-11-20T04:11:29;2.45;;;1.30;;
34876;SDS011;21086;44.780;17.194;2022-11-20T04:14:02;2.53;;;1.30;;
34876;SDS011;21086;44.780;17.194;2022-11-20T04:16:32;1.60;;;0.93;;
34876;SDS011;21086;44.780;17.194;2022-11-20T04:19:02;1.55;;;0.88;;
34876;SDS011;21086;44.780;17.194;2022-11-20T04:21:30;3.92;;;1.63;;
34876;SDS011;21086;44.780;17.194;2022-11-20T04:23:57;4.25;;;1.55;;
34876;SDS011;21086;44.780;17.194;2022-11-20T04:26:25;1.67;;;1.15;;
34876;SDS011;21086;44.780;17.194;2022-11-20T04:28:53;2.33;;;0.80;;
34876;SDS011;21086;44.780;17.194;2022-11-20T04:31:22;3.17;;;1.42;;
34876;SDS011;21086;44.780;17.194;2022-11-20T04:33:51;0.90;;;0.70;;
34876;SDS011;21086;44.780;17.194;2022-11-20T04:38:50;1.45;;;0.80;;
34876;SDS011;21086;44.780;17.194;2022-11-20T04:41:23;1.25;;;0.90;;
34876;SDS011;21086;44.780;17.194;2022-11-20T04:43:53;2.83;;;1.38;;
34876;SDS011;21086;44.780;17.194;2022-11-20T04:46:26;1.50;;;0.90;;
34876;SDS011;21086;44.780;17.194;2022-11-20T04:48:53;1.83;;;1.20;;
34876;SDS011;21086;44.780;17.194;2022-11-20T04:51:21;1.98;;;1.10;;
34876;SDS011;21086;44.780;17.194;2022-11-20T04:53:48;2.75;;;1.38;;
34876;SDS011;21086;44.780;17.194;2022-11-20T04:56:15;2.67;;;1.50;;
34876;SDS011;21086;44.780;17.194;2022-11-20T04:58:42;3.47;;;1.52;;
34876;SDS011;21086;44.780;17.194;2022-11-20T05:03:39;2.95;;;1.55;;
34876;SDS011;21086;44.780;17.194;2022-11-20T05:06:10;2.65;;;1.67;;
34876;SDS011;21086;44.780;17.194;2022-11-20T05:08:39;3.05;;;1.27;;
34876;SDS011;21086;44.780;17.194;2022-11-20T05:11:07;0.98;;;0.75;;
34876;SDS011;21086;44.780;17.194;2022-11-20T05:13:38;1.90;;;1.08;;
34876;SDS011;21086;44.780;17.194;2022-11-20T05:16:10;1.95;;;0.90;;
34876;SDS011;21086;44.780;17.194;2022-11-20T05:18:41;3.05;;;1.10;;
34876;SDS011;21086;44.780;17.194;2022-11-20T05:21:08;2.33;;;1.30;;
34876;SDS011;21086;44.780;17.194;2022-11-20T05:23:37;0.85;;;0.60;;
34876;SDS011;21086;44.780;17.194;2022-11-20T05:26:05;1.27;;;0.45;;
34876;SDS011;21086;44.780;17.194;2022-11-20T05:28:33;0.95;;;0.70;;
34876;SDS011;21086;44.780;17.194;2022-11-20T05:31:19;1.40;;;0.82;;
34876;SDS011;21086;44.780;17.194;2022-11-20T05:33:53;1.95;;;1.27;;
34876;SDS011;21086;44.780;17.194;2022-11-20T05:36:21;5.65;;;2.40;;
34876;SDS011;21086;44.780;17.194;2022-11-20T05:38:48;2.78;;;1.50;;
34876;SDS011;21086;44.780;17.194;2022-11-20T05:41:18;4.72;;;1.98;;
34876;SDS011;21086;44.780;17.194;2022-11-20T05:43:46;4.32;;;2.35;;
34876;SDS011;21086;44.780;17.194;2022-11-20T05:46:14;6.65;;;2.85;;
34876;SDS011;21086;44.780;17.194;2022-11-20T05:48:43;6.32;;;3.30;;
34876;SDS011;21086;44.780;17.194;2022-11-20T05:51:12;6.47;;;3.28;;
34876;SDS011;21086;44.780;17.194;2022-11-20T05:53:41;3.60;;;2.00;;
34876;SDS011;21086;44.780;17.194;2022-11-20T05:56:18;2.47;;;1.70;;
34876;SDS011;21086;44.780;17.194;2022-11-20T05:58:45;3.85;;;1.30;;
34876;SDS011;21086;44.780;17.194;2022-11-20T06:01:17;1.33;;;1.05;;
34876;SDS011;21086;44.780;17.194;2022-11-20T06:03:48;1.60;;;0.80;;
34876;SDS011;21086;44.780;17.194;2022-11-20T06:06:17;1.92;;;1.13;;
34876;SDS011;21086;44.780;17.194;2022-11-20T06:08:45;2.10;;;1.33;;
34876;SDS011;21086;44.780;17.194;2022-11-20T06:11:12;1.40;;;1.00;;
34876;SDS011;21086;44.780;17.194;2022-11-20T06:13:40;12.73;;;6.30;;
34876;SDS011;21086;44.780;17.194;2022-11-20T06:16:08;5.55;;;2.63;;
34876;SDS011;21086;44.780;17.194;2022-11-20T06:18:36;1.98;;;1.15;;
34876;SDS011;21086;44.780;17.194;2022-11-20T06:21:08;1.38;;;0.95;;
34876;SDS011;21086;44.780;17.194;2022-11-20T06:23:37;1.55;;;0.90;;
34876;SDS011;21086;44.780;17.194;2022-11-20T06:26:04;4.72;;;1.90;;
34876;SDS011;21086;44.780;17.194;2022-11-20T06:28:32;2.25;;;1.05;;
34876;SDS011;21086;44.780;17.194;2022-11-20T06:31:00;2.65;;;1.83;;
34876;SDS011;21086;44.780;17.194;2022-11-20T06:33:28;2.83;;;1.52;;
34876;SDS011;21086;44.780;17.194;2022-11-20T06:35:58;3.13;;;1.67;;
34876;SDS011;21086;44.780;17.194;2022-11-20T06:38:34;3.15;;;1.55;;
34876;SDS011;21086;44.780;17.194;2022-11-20T06:41:02;2.97;;;1.90;;
34876;SDS011;21086;44.780;17.194;2022-11-20T06:43:30;3.55;;;1.90;;
34876;SDS011;21086;44.780;17.194;2022-11-20T06:45:57;6.05;;;3.50;;
34876;SDS011;21086;44.780;17.194;2022-11-20T06:48:25;11.07;;;5.63;;
34876;SDS011;21086;44.780;17.194;2022-11-20T06:50:53;3.67;;;2.20;;
34876;SDS011;21086;44.780;17.194;2022-11-20T06:53:21;3.45;;;2.33;;
34876;SDS011;21086;44.780;17.194;2022-11-20T06:55:49;3.50;;;2.10;;
34876;SDS011;21086;44.780;17.194;2022-11-20T06:58:17;2.60;;;1.73;;
34876;SDS011;21086;44.780;17.194;2022-11-20T07:00:44;1.60;;;0.82;;
34876;SDS011;21086;44.780;17.194;2022-11-20T07:03:11;1.83;;;1.20;;
34876;SDS011;21086;44.780;17.194;2022-11-20T07:05:39;2.88;;;1.48;;
34876;SDS011;21086;44.780;17.194;2022-11-20T07:08:06;6.13;;;2.00;;
34876;SDS011;21086;44.780;17.194;2022-11-20T07:10:34;3.75;;;2.03;;
34876;SDS011;21086;44.780;17.194;2022-11-20T07:13:01;4.10;;;2.20;;
34876;SDS011;21086;44.780;17.194;2022-11-20T07:15:28;4.28;;;2.60;;
34876;SDS011;21086;44.780;17.194;2022-11-20T07:17:58;3.38;;;1.95;;
34876;SDS011;21086;44.780;17.194;2022-11-20T07:20:26;4.13;;;2.30;;
34876;SDS011;21086;44.780;17.194;2022-11-20T07:22:53;4.22;;;2.53;;
34876;SDS011;21086;44.780;17.194;2022-11-20T07:25:23;2.90;;;1.58;;
34876;SDS011;21086;44.780;17.194;2022-11-20T07:27:52;1.67;;;1.10;;
34876;SDS011;21086;44.780;17.194;2022-11-20T07:30:19;1.90;;;1.13;;
34876;SDS011;21086;44.780;17.194;2022-11-20T07:32:46;3.55;;;2.00;;
34876;SDS011;21086;44.780;17.194;2022-11-20T07:35:14;2.03;;;1.38;;
34876;SDS011;21086;44.780;17.194;2022-11-20T07:37:41;4.68;;;2.40;;
34876;SDS011;21086;44.780;17.194;2022-11-20T07:40:08;28.15;;;18.95;;
34876;SDS011;21086;44.780;17.194;2022-11-20T07:42:35;4.28;;;2.72;;
34876;SDS011;21086;44.780;17.194;2022-11-20T07:45:02;4.15;;;2.90;;
34876;SDS011;21086;44.780;17.194;2022-11-20T07:47:34;4.47;;;2.53;;
34876;SDS011;21086;44.780;17.194;2022-11-20T07:50:01;4.38;;;2.95;;
34876;SDS011;21086;44.780;17.194;2022-11-20T07:52:29;4.90;;;2.88;;
34876;SDS011;21086;44.780;17.194;2022-11-20T07:54:56;2.80;;;1.88;;
34876;SDS011;21086;44.780;17.194;2022-11-20T07:57:23;3.72;;;2.25;;
34876;SDS011;21086;44.780;17.194;2022-11-20T07:59:53;2.50;;;1.65;;
34876;SDS011;21086;44.780;17.194;2022-11-20T08:02:20;2.80;;;1.90;;
34876;SDS011;21086;44.780;17.194;2022-11-20T08:04:47;5.20;;;2.33;;
34876;SDS011;21086;44.780;17.194;2022-11-20T08:07:14;10.75;;;7.22;;
34876;SDS011;21086;44.780;17.194;2022-11-20T08:09:41;6.93;;;3.65;;
34876;SDS011;21086;44.780;17.194;2022-11-20T08:12:10;8.88;;;5.38;;
34876;SDS011;21086;44.780;17.194;2022-11-20T08:15:05;3.58;;;1.92;;
34876;SDS011;21086;44.780;17.194;2022-11-20T08:17:38;4.22;;;2.03;;
34876;SDS011;21086;44.780;17.194;2022-11-20T08:20:05;7.30;;;3.40;;
34876;SDS011;21086;44.780;17.194;2022-11-20T08:22:33;6.43;;;4.10;;
34876;SDS011;21086;44.780;17.194;2022-11-20T08:25:00;4.20;;;2.80;;
34876;SDS011;21086;44.780;17.194;2022-11-20T08:27:27;4.20;;;2.60;;
34876;SDS011;21086;44.780;17.194;2022-11-20T08:29:54;5.70;;;2.63;;
34876;SDS011;21086;44.780;17.194;2022-11-20T08:32:21;3.90;;;2.13;;
34876;SDS011;21086;44.780;17.194;2022-11-20T08:34:48;4.65;;;2.38;;
34876;SDS011;21086;44.780;17.194;2022-11-20T08:37:15;5.18;;;2.90;;
34876;SDS011;21086;44.780;17.194;2022-11-20T08:39:42;4.95;;;3.58;;
34876;SDS011;21086;44.780;17.194;2022-11-20T08:42:08;5.05;;;3.10;;
34876;SDS011;21086;44.780;17.194;2022-11-20T08:44:35;5.90;;;3.75;;
34876;SDS011;21086;44.780;17.194;2022-11-20T08:47:03;5.57;;;4.47;;
34876;SDS011;21086;44.780;17.194;2022-11-20T08:49:29;4.25;;;2.92;;
34876;SDS011;21086;44.780;17.194;2022-11-20T08:51:56;10.43;;;7.43;;
34876;SDS011;21086;44.780;17.194;2022-11-20T08:54:23;7.63;;;6.25;;
34876;SDS011;21086;44.780;17.194;2022-11-20T08:56:50;8.57;;;5.72;;
34876;SDS011;21086;44.780;17.194;2022-11-20T08:59:17;5.80;;;4.13;;
34876;SDS011;21086;44.780;17.194;2022-11-20T09:02:04;4.40;;;3.40;;
34876;SDS011;21086;44.780;17.194;2022-11-20T09:04:30;3.95;;;2.63;;
34876;SDS011;21086;44.780;17.194;2022-11-20T09:06:59;3.58;;;2.67;;
34876;SDS011;21086;44.780;17.194;2022-11-20T09:09:26;18.98;;;11.48;;
34876;SDS011;21086;44.780;17.194;2022-11-20T09:11:53;7.65;;;5.18;;
34876;SDS011;21086;44.780;17.194;2022-11-20T09:14:20;6.55;;;4.20;;
34876;SDS011;21086;44.780;17.194;2022-11-20T09:16:47;5.65;;;3.72;;
34876;SDS011;21086;44.780;17.194;2022-11-20T09:19:14;4.28;;;3.42;;
34876;SDS011;21086;44.780;17.194;2022-11-20T09:21:53;4.30;;;3.88;;
34876;SDS011;21086;44.780;17.194;2022-11-20T09:29:55;4.47;;;2.75;;
34876;SDS011;21086;44.780;17.194;2022-11-20T09:32:23;4.97;;;3.15;;
34876;SDS011;21086;44.780;17.194;2022-11-20T09:34:50;4.60;;;2.83;;
34876;SDS011;21086;44.780;17.194;2022-11-20T09:37:17;3.03;;;1.88;;
34876;SDS011;21086;44.780;17.194;2022-11-20T09:39:44;5.43;;;3.15;;
34876;SDS011;21086;44.780;17.194;2022-11-20T09:47:35;5.70;;;4.68;;
34876;SDS011;21086;44.780;17.194;2022-11-20T09:50:32;5.70;;;5.10;;
34876;SDS011;21086;44.780;17.194;2022-11-20T09:56:14;4.78;;;3.03;;
34876;SDS011;21086;44.780;17.194;2022-11-20T09:58:50;4.65;;;3.75;;
34876;SDS011;21086;44.780;17.194;2022-11-20T10:01:25;3.40;;;2.30;;
34876;SDS011;21086;44.780;17.194;2022-11-20T10:06:32;5.93;;;3.45;;
34876;SDS011;21086;44.780;17.194;2022-11-20T10:15:10;7.45;;;5.32;;
34876;SDS011;21086;44.780;17.194;2022-11-20T10:20:52;8.32;;;5.50;;
34876;SDS011;21086;44.780;17.194;2022-11-20T10:24:01;3.25;;;2.65;;
34876;SDS011;21086;44.780;17.194;2022-11-20T10:26:45;5.78;;;4.47;;
34876;SDS011;21086;44.780;17.194;2022-11-20T10:29:36;5.05;;;3.50;;
34876;SDS011;21086;44.780;17.194;2022-11-20T10:32:15;3.80;;;2.70;;
34876;SDS011;21086;44.780;17.194;2022-11-20T10:35:35;3.75;;;2.53;;
34876;SDS011;21086;44.780;17.194;2022-11-20T10:38:13;4.13;;;2.83;;
34876;SDS011;21086;44.780;17.194;2022-11-20T10:40:47;5.32;;;2.92;;
34876;SDS011;21086;44.780;17.194;2022-11-20T10:48:25;6.25;;;3.35;;
34876;SDS011;21086;44.780;17.194;2022-11-20T10:56:51;2.47;;;1.73;;
34876;SDS011;21086;44.780;17.194;2022-11-20T11:01:59;2.88;;;1.40;;
34876;SDS011;21086;44.780;17.194;2022-11-20T11:07:24;2.67;;;1.92;;
34876;SDS011;21086;44.780;17.194;2022-11-20T11:09:56;2.80;;;2.22;;
34876;SDS011;21086;44.780;17.194;2022-11-20T11:12:24;6.60;;;4.25;;
34876;SDS011;21086;44.780;17.194;2022-11-20T11:14:53;3.83;;;2.53;;
34876;SDS011;21086;44.780;17.194;2022-11-20T11:17:50;2.67;;;2.13;;
34876;SDS011;21086;44.780;17.194;2022-11-20T11:20:27;3.65;;;2.75;;
34876;SDS011;21086;44.780;17.194;2022-11-20T11:22:58;3.00;;;2.20;;
34876;SDS011;21086;44.780;17.194;2022-11-20T11:25:29;5.55;;;4.05;;
34876;SDS011;21086;44.780;17.194;2022-11-20T11:30:55;5.63;;;3.28;;
34876;SDS011;21086;44.780;17.194;2022-11-20T11:35:54;8.07;;;5.60;;
34876;SDS011;21086;44.780;17.194;2022-11-20T11:38:32;4.70;;;3.05;;
34876;SDS011;21086;44.780;17.194;2022-11-20T11:41:18;6.43;;;4.75;;
34876;SDS011;21086;44.780;17.194;2022-11-20T11:43:53;9.27;;;6.05;;
34876;SDS011;21086;44.780;17.194;2022-11-20T11:46:44;6.55;;;3.78;;
34876;SDS011;21086;44.780;17.194;2022-11-20T11:49:20;5.78;;;3.97;;
34876;SDS011;21086;44.780;17.194;2022-11-20T11:57:10;2.75;;;1.98;;
34876;SDS011;21086;44.780;17.194;2022-11-20T11:59:51;3.40;;;2.63;;
34876;SDS011;21086;44.780;17.194;2022-11-20T12:02:37;6.80;;;5.70;;
34876;SDS011;21086;44.780;17.194;2022-11-20T12:08:31;4.13;;;3.10;;
34876;SDS011;21086;44.780;17.194;2022-11-20T12:14:04;3.65;;;2.90;;
34876;SDS011;21086;44.780;17.194;2022-11-20T12:16:37;5.63;;;4.20;;
34876;SDS011;21086;44.780;17.194;2022-11-20T12:19:12;4.38;;;2.97;;
34876;SDS011;21086;44.780;17.194;2022-11-20T12:21:54;7.03;;;5.47;;
34876;SDS011;21086;44.780;17.194;2022-11-20T12:24:32;6.72;;;5.00;;
34876;SDS011;21086;44.780;17.194;2022-11-20T12:32:39;4.50;;;3.60;;
34876;SDS011;21086;44.780;17.194;2022-11-20T12:41:13;6.90;;;4.50;;
34876;SDS011;21086;44.780;17.194;2022-11-20T12:56:03;8.38;;;5.60;;
34876;SDS011;21086;44.780;17.194;2022-11-20T13:01:52;10.68;;;5.80;;
34876;SDS011;21086;44.780;17.194;2022-11-20T13:07:22;19.25;;;9.23;;
34876;SDS011;21086;44.780;17.194;2022-11-20T13:09:52;8.38;;;4.43;;
34876;SDS011;21086;44.780;17.194;2022-11-20T13:12:56;19.45;;;12.82;;
34876;SDS011;21086;44.780;17.194;2022-11-20T13:18:15;17.67;;;11.25;;
34876;SDS011;21086;44.780;17.194;2022-11-20T13:20:43;21.73;;;14.10;;
34876;SDS011;21086;44.780;17.194;2022-11-20T13:23:22;15.90;;;9.63;;
34876;SDS011;21086;44.780;17.194;2022-11-20T13:26:05;17.00;;;9.95;;
34876;SDS011;21086;44.780;17.194;2022-11-20T13:28:43;11.48;;;6.10;;
34876;SDS011;21086;44.780;17.194;2022-11-20T13:31:26;9.10;;;4.95;;
34876;SDS011;21086;44.780;17.194;2022-11-20T13:34:00;12.98;;;6.47;;
34876;SDS011;21086;44.780;17.194;2022-11-20T13:36:31;8.55;;;5.40;;
34876;SDS011;21086;44.780;17.194;2022-11-20T13:38:59;10.40;;;6.90;;
34876;SDS011;21086;44.780;17.194;2022-11-20T13:41:27;27.23;;;14.23;;
34876;SDS011;21086;44.780;17.194;2022-11-20T13:44:15;31.45;;;14.13;;
34876;SDS011;21086;44.780;17.194;2022-11-20T13:46:53;10.98;;;7.47;;
34876;SDS011;21086;44.780;17.194;2022-11-20T13:49:29;14.00;;;8.38;;
34876;SDS011;21086;44.780;17.194;2022-11-20T14:01:11;54.05;;;33.10;;
34876;SDS011;21086;44.780;17.194;2022-11-20T14:03:47;36.70;;;22.92;;
34876;SDS011;21086;44.780;17.194;2022-11-20T14:06:33;22.08;;;14.80;;
34876;SDS011;21086;44.780;17.194;2022-11-20T14:09:10;15.18;;;10.70;;
34876;SDS011;21086;44.780;17.194;2022-11-20T14:11:48;8.40;;;6.80;;
34876;SDS011;21086;44.780;17.194;2022-11-20T14:14:17;13.95;;;10.95;;
34876;SDS011;21086;44.780;17.194;2022-11-20T14:16:47;15.32;;;11.05;;
34876;SDS011;21086;44.780;17.194;2022-11-20T14:21:46;23.70;;;17.30;;
34876;SDS011;21086;44.780;17.194;2022-11-20T14:24:22;23.58;;;15.88;;
34876;SDS011;21086;44.780;17.194;2022-11-20T14:26:52;14.95;;;10.93;;
34876;SDS011;21086;44.780;17.194;2022-11-20T14:29:21;13.70;;;9.63;;
34876;SDS011;21086;44.780;17.194;2022-11-20T14:31:53;8.93;;;6.72;;
34876;SDS011;21086;44.780;17.194;2022-11-20T14:34:23;8.60;;;6.15;;
34876;SDS011;21086;44.780;17.194;2022-11-20T14:36:56;35.30;;;21.15;;
34876;SDS011;21086;44.780;17.194;2022-11-20T14:39:31;13.07;;;9.07;;
34876;SDS011;21086;44.780;17.194;2022-11-20T14:42:00;8.00;;;5.65;;
34876;SDS011;21086;44.780;17.194;2022-11-20T14:44:31;7.50;;;6.50;;
34876;SDS011;21086;44.780;17.194;2022-11-20T14:47:00;4.53;;;2.90;;
34876;SDS011;21086;44.780;17.194;2022-11-20T14:49:30;3.47;;;2.88;;
34876;SDS011;21086;44.780;17.194;2022-11-20T14:52:13;5.72;;;4.30;;
34876;SDS011;21086;44.780;17.194;2022-11-20T14:54:46;5.63;;;4.68;;
34876;SDS011;21086;44.780;17.194;2022-11-20T15:00:04;3.78;;;2.67;;
34876;SDS011;21086;44.780;17.194;2022-11-20T15:02:32;7.13;;;4.90;;
34876;SDS011;21086;44.780;17.194;2022-11-20T15:05:00;5.53;;;4.43;;
34876;SDS011;21086;44.780;17.194;2022-11-20T15:07:31;3.25;;;2.42;;
34876;SDS011;21086;44.780;17.194;2022-11-20T15:10:08;12.65;;;8.98;;
34876;SDS011;21086;44.780;17.194;2022-11-20T15:13:00;4.68;;;3.13;;
34876;SDS011;21086;44.780;17.194;2022-11-20T15:15:48;9.63;;;6.88;;
34876;SDS011;21086;44.780;17.194;2022-11-20T15:18:26;10.30;;;5.57;;
34876;SDS011;21086;44.780;17.194;2022-11-20T15:21:01;8.15;;;6.10;;
34876;SDS011;21086;44.780;17.194;2022-11-20T15:23:30;46.13;;;26.88;;
34876;SDS011;21086;44.780;17.194;2022-11-20T15:25:57;42.08;;;28.25;;
34876;SDS011;21086;44.780;17.194;2022-11-20T15:30:56;6.15;;;5.55;;
34876;SDS011;21086;44.780;17.194;2022-11-20T15:33:24;5.55;;;5.00;;
34876;SDS011;21086;44.780;17.194;2022-11-20T15:35:51;10.05;;;8.20;;
34876;SDS011;21086;44.780;17.194;2022-11-20T15:38:18;7.82;;;5.63;;
34876;SDS011;21086;44.780;17.194;2022-11-20T15:40:45;12.00;;;8.88;;
34876;SDS011;21086;44.780;17.194;2022-11-20T15:43:12;10.57;;;7.65;;
34876;SDS011;21086;44.780;17.194;2022-11-20T15:45:47;8.95;;;6.43;;
34876;SDS011;21086;44.780;17.194;2022-11-20T15:53:32;12.70;;;8.27;;
34876;SDS011;21086;44.780;17.194;2022-11-20T15:56:00;15.05;;;10.40;;
34876;SDS011;21086;44.780;17.194;2022-11-20T15:58:27;18.38;;;11.48;;
34876;SDS011;21086;44.780;17.194;2022-11-20T16:00:54;19.13;;;10.88;;
34876;SDS011;21086;44.780;17.194;2022-11-20T16:03:25;20.77;;;12.88;;
34876;SDS011;21086;44.780;17.194;2022-11-20T16:06:09;28.48;;;18.17;;
34876;SDS011;21086;44.780;17.194;2022-11-20T16:08:36;13.85;;;9.82;;
34876;SDS011;21086;44.780;17.194;2022-11-20T16:11:03;10.25;;;7.50;;
34876;SDS011;21086;44.780;17.194;2022-11-20T16:13:31;6.60;;;5.00;;
34876;SDS011;21086;44.780;17.194;2022-11-20T16:16:50;7.80;;;4.47;;
34876;SDS011;21086;44.780;17.194;2022-11-20T16:19:11;7.38;;;3.70;;
34876;SDS011;21086;44.780;17.194;2022-11-20T16:21:39;5.70;;;3.67;;
34876;SDS011;21086;44.780;17.194;2022-11-20T16:24:09;9.00;;;6.38;;
34876;SDS011;21086;44.780;17.194;2022-11-20T16:26:41;10.18;;;7.50;;
34876;SDS011;21086;44.780;17.194;2022-11-20T16:29:09;11.65;;;7.53;;
34876;SDS011;21086;44.780;17.194;2022-11-20T16:31:37;17.10;;;11.48;;
34876;SDS011;21086;44.780;17.194;2022-11-20T16:34:06;8.73;;;6.28;;
34876;SDS011;21086;44.780;17.194;2022-11-20T16:36:41;7.72;;;5.10;;
34876;SDS011;21086;44.780;17.194;2022-11-20T16:39:10;7.40;;;6.70;;
34876;SDS011;21086;44.780;17.194;2022-11-20T16:41:37;9.88;;;6.45;;
34876;SDS011;21086;44.780;17.194;2022-11-20T16:44:08;7.28;;;5.75;;
34876;SDS011;21086;44.780;17.194;2022-11-20T16:46:37;7.97;;;6.05;;
34876;SDS011;21086;44.780;17.194;2022-11-20T16:49:11;13.07;;;8.80;;
34876;SDS011;21086;44.780;17.194;2022-11-20T16:51:39;8.98;;;6.25;;
34876;SDS011;21086;44.780;17.194;2022-11-20T16:54:07;10.23;;;6.75;;
34876;SDS011;21086;44.780;17.194;2022-11-20T16:56:35;8.60;;;7.55;;
34876;SDS011;21086;44.780;17.194;2022-11-20T16:59:03;10.65;;;7.43;;
34876;SDS011;21086;44.780;17.194;2022-11-20T17:01:30;6.82;;;5.43;;
34876;SDS011;21086;44.780;17.194;2022-11-20T17:04:00;8.18;;;6.32;;